sensor_id;sensor_type;location;lat;lon;timestamp;P1;durP1;ratioP1;P2;durP2;ratioP2
18720;SDS011;9489;50.948;3.114;2024-01-15T00:01:28;3.35;;;3.03;;
18720;SDS011;9489;50.948;3.114;2024-01-15T00:03:54;3.70;;;3.17;;
18720;SDS011;9489;50.948;3.114;2024-01-15T00:06:20;4.85;;;3.03;;
18720;SDS011;9489;50.948;3.114;2024-01-15T00:08:46;5.50;;;3.03;;
18720;SDS011;9489;50.948;3.114;2024-01-15T00:11:12;3.60;;;2.67;;
18720;SDS011;9489;50.948;3.114;2024-01-15T00:13:37;4.10;;;2.85;;
18720;SDS011;9489;50.948;3.114;2024-01-15T00:16:04;2.78;;;2.15;;
18720;SDS011;9489;50.948;3.114;2024-01-15T00:18:30;4.13;;;2.88;;
18720;SDS011;9489;50.948;3.114;2024-01-15T00:20:56;5.20;;;2.50;;
18720;SDS011;9489;50.948;3.114;2024-01-15T00:23:22;4.50;;;2.40;;
18720;SDS011;9489;50.948;3.114;2024-01-15T00:25:48;4.95;;;2.58;;
18720;SDS011;9489;50.948;3.114;2024-01-15T00:28:13;2.65;;;2.22;;
18720;SDS011;9489;50.948;3.114;2024-01-15T00:30:39;2.72;;;2.25;;
18720;SDS011;9489;50.948;3.114;2024-01-15T00:33:05;5.55;;;2.20;;
18720;SDS011;9489;50.948;3.114;2024-01-15T00:35:31;4.93;;;2.00;;
18720;SDS011;9489;50.948;3.114;2024-01-15T00:37:56;3.90;;;2.13;;
18720;SDS011;9489;50.948;3.114;2024-01-15T00:40:22;3.10;;;1.67;;
18720;SDS011;9489;50.948;3.114;2024-01-15T00:42:48;3.45;;;1.60;;
18720;SDS011;9489;50.948;3.114;2024-01-15T00:45:14;2.92;;;1.88;;
18720;SDS011;9489;50.948;3.114;2024-01-15T00:47:39;3.25;;;2.03;;
18720;SDS011;9489;50.948;3.114;2024-01-15T00:50:05;5.63;;;1.77;;
18720;SDS011;9489;50.948;3.114;2024-01-15T00:52:31;11.80;;;1.60;;
18720;SDS011;9489;50.948;3.114;2024-01-15T00:54:57;3.13;;;1.75;;
18720;SDS011;9489;50.948;3.114;2024-01-15T00:57:22;3.65;;;1.92;;
18720;SDS011;9489;50.948;3.114;2024-01-15T00:59:48;3.10;;;1.80;;
18720;SDS011;9489;50.948;3.114;2024-01-15T01:02:14;3.80;;;1.30;;
18720;SDS011;9489;50.948;3.114;2024-01-15T01:04:40;3.42;;;1.60;;
18720;SDS011;9489;50.948;3.114;2024-01-15T01:07:05;2.90;;;1.92;;
18720;SDS011;9489;50.948;3.114;2024-01-15T01:09:31;3.45;;;2.00;;
18720;SDS011;9489;50.948;3.114;2024-01-15T01:11:57;4.65;;;1.70;;
18720;SDS011;9489;50.948;3.114;2024-01-15T01:14:22;3.95;;;1.80;;
18720;SDS011;9489;50.948;3.114;2024-01-15T01:16:48;5.47;;;1.90;;
18720;SDS011;9489;50.948;3.114;2024-01-15T01:19:14;4.57;;;2.03;;
18720;SDS011;9489;50.948;3.114;2024-01-15T01:21:39;5.93;;;2.33;;
18720;SDS011;9489;50.948;3.114;2024-01-15T01:24:05;3.38;;;2.42;;
18720;SDS011;9489;50.948;3.114;2024-01-15T01:26:31;3.33;;;2.55;;
18720;SDS011;9489;50.948;3.114;2024-01-15T01:28:57;6.95;;;1.95;;
18720;SDS011;9489;50.948;3.114;2024-01-15T01:31:23;5.07;;;2.30;;
18720;SDS011;9489;50.948;3.114;2024-01-15T01:33:49;2.83;;;2.22;;
18720;SDS011;9489;50.948;3.114;2024-01-15T01:36:14;3.03;;;2.10;;
18720;SDS011;9489;50.948;3.114;2024-01-15T01:38:40;3.40;;;2.35;;
18720;SDS011;9489;50.948;3.114;2024-01-15T01:41:06;3.47;;;2.38;;
18720;SDS011;9489;50.948;3.114;2024-01-15T01:43:32;6.05;;;2.50;;
18720;SDS011;9489;50.948;3.114;2024-01-15T01:45:58;4.70;;;2.63;;
18720;SDS011;9489;50.948;3.114;2024-01-15T01:48:26;6.57;;;2.30;;
18720;SDS011;9489;50.948;3.114;2024-01-15T01:50:57;4.35;;;2.25;;
18720;SDS011;9489;50.948;3.114;2024-01-15T01:53:25;2.80;;;2.17;;
18720;SDS011;9489;50.948;3.114;2024-01-15T01:55:52;2.90;;;1.95;;
18720;SDS011;9489;50.948;3.114;2024-01-15T01:58:18;2.72;;;2.10;;
18720;SDS011;9489;50.948;3.114;2024-01-15T02:00:45;4.60;;;2.28;;
18720;SDS011;9489;50.948;3.114;2024-01-15T02:03:12;2.85;;;2.30;;
18720;SDS011;9489;50.948;3.114;2024-01-15T02:05:38;4.60;;;1.90;;
18720;SDS011;9489;50.948;3.114;2024-01-15T02:08:05;4.00;;;2.00;;
18720;SDS011;9489;50.948;3.114;2024-01-15T02:10:30;4.38;;;2.42;;
18720;SDS011;9489;50.948;3.114;2024-01-15T02:12:56;3.90;;;2.78;;
18720;SDS011;9489;50.948;3.114;2024-01-15T02:15:22;6.47;;;2.40;;
18720;SDS011;9489;50.948;3.114;2024-01-15T02:20:22;3.72;;;2.33;;
18720;SDS011;9489;50.948;3.114;2024-01-15T02:22:48;2.60;;;2.05;;
18720;SDS011;9489;50.948;3.114;2024-01-15T02:25:14;4.90;;;2.20;;
18720;SDS011;9489;50.948;3.114;2024-01-15T02:27:39;4.63;;;2.90;;
18720;SDS011;9489;50.948;3.114;2024-01-15T02:30:06;9.52;;;3.10;;
18720;SDS011;9489;50.948;3.114;2024-01-15T02:32:33;5.57;;;3.10;;
18720;SDS011;9489;50.948;3.114;2024-01-15T02:34:59;4.95;;;3.17;;
18720;SDS011;9489;50.948;3.114;2024-01-15T02:37:24;4.43;;;2.65;;
18720;SDS011;9489;50.948;3.114;2024-01-15T02:39:50;6.95;;;2.92;;
18720;SDS011;9489;50.948;3.114;2024-01-15T02:42:15;5.75;;;2.55;;
18720;SDS011;9489;50.948;3.114;2024-01-15T02:44:41;4.25;;;1.92;;
18720;SDS011;9489;50.948;3.114;2024-01-15T02:47:07;3.92;;;1.98;;
18720;SDS011;9489;50.948;3.114;2024-01-15T02:49:32;3.08;;;1.90;;
18720;SDS011;9489;50.948;3.114;2024-01-15T02:51:58;5.45;;;2.47;;
18720;SDS011;9489;50.948;3.114;2024-01-15T02:54:23;5.35;;;2.80;;
18720;SDS011;9489;50.948;3.114;2024-01-15T02:56:49;6.18;;;2.28;;
18720;SDS011;9489;50.948;3.114;2024-01-15T02:59:15;3.88;;;2.47;;
18720;SDS011;9489;50.948;3.114;2024-01-15T03:01:40;3.72;;;1.80;;
18720;SDS011;9489;50.948;3.114;2024-01-15T03:04:07;2.47;;;2.28;;
18720;SDS011;9489;50.948;3.114;2024-01-15T03:06:33;3.75;;;2.20;;
18720;SDS011;9489;50.948;3.114;2024-01-15T03:08:58;4.07;;;1.95;;
18720;SDS011;9489;50.948;3.114;2024-01-15T03:11:24;3.83;;;2.45;;
18720;SDS011;9489;50.948;3.114;2024-01-15T03:13:50;3.50;;;1.90;;
18720;SDS011;9489;50.948;3.114;2024-01-15T03:16:15;2.63;;;2.22;;
18720;SDS011;9489;50.948;3.114;2024-01-15T03:18:41;5.43;;;2.28;;
18720;SDS011;9489;50.948;3.114;2024-01-15T03:21:07;5.65;;;2.40;;
18720;SDS011;9489;50.948;3.114;2024-01-15T03:23:32;8.00;;;2.58;;
18720;SDS011;9489;50.948;3.114;2024-01-15T03:25:58;5.10;;;2.17;;
18720;SDS011;9489;50.948;3.114;2024-01-15T03:28:24;4.85;;;2.53;;
18720;SDS011;9489;50.948;3.114;2024-01-15T03:30:49;3.42;;;2.20;;
18720;SDS011;9489;50.948;3.114;2024-01-15T03:33:15;6.65;;;2.35;;
18720;SDS011;9489;50.948;3.114;2024-01-15T03:35:40;6.45;;;2.53;;
18720;SDS011;9489;50.948;3.114;2024-01-15T03:38:06;5.30;;;2.42;;
18720;SDS011;9489;50.948;3.114;2024-01-15T03:40:32;3.25;;;2.60;;
18720;SDS011;9489;50.948;3.114;2024-01-15T03:42:57;3.60;;;2.33;;
18720;SDS011;9489;50.948;3.114;2024-01-15T03:45:23;9.02;;;2.40;;
18720;SDS011;9489;50.948;3.114;2024-01-15T03:47:48;7.15;;;2.10;;
18720;SDS011;9489;50.948;3.114;2024-01-15T03:50:14;3.45;;;2.50;;
18720;SDS011;9489;50.948;3.114;2024-01-15T03:52:40;6.93;;;5.28;;
18720;SDS011;9489;50.948;3.114;2024-01-15T03:55:05;5.38;;;2.80;;
18720;SDS011;9489;50.948;3.114;2024-01-15T03:57:31;5.95;;;2.80;;
18720;SDS011;9489;50.948;3.114;2024-01-15T03:59:57;5.43;;;2.53;;
18720;SDS011;9489;50.948;3.114;2024-01-15T04:02:23;4.38;;;2.50;;
18720;SDS011;9489;50.948;3.114;2024-01-15T04:04:48;5.93;;;2.50;;
18720;SDS011;9489;50.948;3.114;2024-01-15T04:07:14;5.65;;;2.33;;
18720;SDS011;9489;50.948;3.114;2024-01-15T04:09:39;4.22;;;2.10;;
18720;SDS011;9489;50.948;3.114;2024-01-15T04:12:05;3.40;;;2.35;;
18720;SDS011;9489;50.948;3.114;2024-01-15T04:14:31;4.25;;;2.10;;
18720;SDS011;9489;50.948;3.114;2024-01-15T04:16:57;6.25;;;2.60;;
18720;SDS011;9489;50.948;3.114;2024-01-15T04:19:22;3.80;;;2.20;;
18720;SDS011;9489;50.948;3.114;2024-01-15T04:21:48;6.63;;;2.72;;
18720;SDS011;9489;50.948;3.114;2024-01-15T04:24:14;5.93;;;2.40;;
18720;SDS011;9489;50.948;3.114;2024-01-15T04:26:39;4.82;;;2.08;;
18720;SDS011;9489;50.948;3.114;2024-01-15T04:29:05;4.93;;;2.40;;
18720;SDS011;9489;50.948;3.114;2024-01-15T04:31:30;6.13;;;2.40;;
18720;SDS011;9489;50.948;3.114;2024-01-15T04:33:56;4.82;;;2.47;;
18720;SDS011;9489;50.948;3.114;2024-01-15T04:36:22;5.18;;;2.45;;
18720;SDS011;9489;50.948;3.114;2024-01-15T04:38:47;4.68;;;2.10;;
18720;SDS011;9489;50.948;3.114;2024-01-15T04:41:13;5.28;;;2.28;;
18720;SDS011;9489;50.948;3.114;2024-01-15T04:43:40;4.50;;;2.05;;
18720;SDS011;9489;50.948;3.114;2024-01-15T04:46:06;5.65;;;2.42;;
18720;SDS011;9489;50.948;3.114;2024-01-15T04:48:32;6.05;;;2.47;;
18720;SDS011;9489;50.948;3.114;2024-01-15T04:50:58;5.70;;;2.63;;
18720;SDS011;9489;50.948;3.114;2024-01-15T04:53:25;4.95;;;2.13;;
18720;SDS011;9489;50.948;3.114;2024-01-15T04:55:50;8.40;;;2.22;;
18720;SDS011;9489;50.948;3.114;2024-01-15T04:58:16;3.45;;;1.80;;
18720;SDS011;9489;50.948;3.114;2024-01-15T05:00:42;7.47;;;2.58;;
18720;SDS011;9489;50.948;3.114;2024-01-15T05:03:07;5.05;;;2.17;;
18720;SDS011;9489;50.948;3.114;2024-01-15T05:05:33;5.65;;;2.33;;
18720;SDS011;9489;50.948;3.114;2024-01-15T05:07:59;5.63;;;2.92;;
18720;SDS011;9489;50.948;3.114;2024-01-15T05:10:24;4.57;;;1.95;;
18720;SDS011;9489;50.948;3.114;2024-01-15T05:12:50;5.05;;;1.85;;
18720;SDS011;9489;50.948;3.114;2024-01-15T05:15:16;7.68;;;1.52;;
18720;SDS011;9489;50.948;3.114;2024-01-15T05:17:41;5.43;;;1.85;;
18720;SDS011;9489;50.948;3.114;2024-01-15T05:20:07;4.88;;;1.60;;
18720;SDS011;9489;50.948;3.114;2024-01-15T05:22:33;6.40;;;1.95;;
18720;SDS011;9489;50.948;3.114;2024-01-15T05:24:59;4.93;;;1.50;;
18720;SDS011;9489;50.948;3.114;2024-01-15T05:27:24;4.65;;;1.30;;
18720;SDS011;9489;50.948;3.114;2024-01-15T05:29:50;5.18;;;1.63;;
18720;SDS011;9489;50.948;3.114;2024-01-15T05:32:15;4.68;;;1.25;;
18720;SDS011;9489;50.948;3.114;2024-01-15T05:34:41;5.88;;;1.10;;
18720;SDS011;9489;50.948;3.114;2024-01-15T05:37:07;4.45;;;1.33;;
18720;SDS011;9489;50.948;3.114;2024-01-15T05:39:32;6.78;;;1.40;;
18720;SDS011;9489;50.948;3.114;2024-01-15T05:41:58;7.13;;;1.15;;
18720;SDS011;9489;50.948;3.114;2024-01-15T05:44:25;3.63;;;1.50;;
18720;SDS011;9489;50.948;3.114;2024-01-15T05:46:50;2.90;;;1.13;;
18720;SDS011;9489;50.948;3.114;2024-01-15T05:49:16;4.47;;;1.55;;
18720;SDS011;9489;50.948;3.114;2024-01-15T05:51:41;7.45;;;1.65;;
18720;SDS011;9489;50.948;3.114;2024-01-15T05:54:07;5.47;;;1.15;;
18720;SDS011;9489;50.948;3.114;2024-01-15T05:56:33;4.07;;;1.15;;
18720;SDS011;9489;50.948;3.114;2024-01-15T05:58:58;4.00;;;1.30;;
18720;SDS011;9489;50.948;3.114;2024-01-15T06:01:24;4.97;;;1.20;;
18720;SDS011;9489;50.948;3.114;2024-01-15T06:03:49;5.05;;;1.52;;
18720;SDS011;9489;50.948;3.114;2024-01-15T06:06:15;8.35;;;1.27;;
18720;SDS011;9489;50.948;3.114;2024-01-15T06:08:41;6.68;;;1.30;;
18720;SDS011;9489;50.948;3.114;2024-01-15T06:11:06;6.53;;;1.40;;
18720;SDS011;9489;50.948;3.114;2024-01-15T06:13:33;5.93;;;1.20;;
18720;SDS011;9489;50.948;3.114;2024-01-15T06:15:58;5.70;;;1.27;;
18720;SDS011;9489;50.948;3.114;2024-01-15T06:18:24;6.63;;;1.10;;
18720;SDS011;9489;50.948;3.114;2024-01-15T06:20:49;4.65;;;1.40;;
18720;SDS011;9489;50.948;3.114;2024-01-15T06:23:15;5.85;;;1.33;;
18720;SDS011;9489;50.948;3.114;2024-01-15T06:25:41;6.47;;;1.55;;
18720;SDS011;9489;50.948;3.114;2024-01-15T06:28:07;4.20;;;1.30;;
18720;SDS011;9489;50.948;3.114;2024-01-15T06:30:32;4.40;;;1.40;;
18720;SDS011;9489;50.948;3.114;2024-01-15T06:32:58;6.05;;;1.23;;
18720;SDS011;9489;50.948;3.114;2024-01-15T06:35:24;2.03;;;1.13;;
18720;SDS011;9489;50.948;3.114;2024-01-15T06:37:49;4.60;;;0.93;;
18720;SDS011;9489;50.948;3.114;2024-01-15T06:40:15;4.38;;;1.35;;
18720;SDS011;9489;50.948;3.114;2024-01-15T06:42:40;3.63;;;1.00;;
18720;SDS011;9489;50.948;3.114;2024-01-15T06:45:06;3.60;;;1.20;;
18720;SDS011;9489;50.948;3.114;2024-01-15T06:47:32;5.47;;;1.40;;
18720;SDS011;9489;50.948;3.114;2024-01-15T06:49:58;4.38;;;1.30;;
18720;SDS011;9489;50.948;3.114;2024-01-15T06:52:23;7.72;;;1.35;;
18720;SDS011;9489;50.948;3.114;2024-01-15T06:54:49;5.28;;;1.20;;
18720;SDS011;9489;50.948;3.114;2024-01-15T06:57:15;6.10;;;1.65;;
18720;SDS011;9489;50.948;3.114;2024-01-15T06:59:40;6.03;;;1.42;;
18720;SDS011;9489;50.948;3.114;2024-01-15T07:02:06;3.78;;;1.40;;
18720;SDS011;9489;50.948;3.114;2024-01-15T07:04:32;3.20;;;1.48;;
18720;SDS011;9489;50.948;3.114;2024-01-15T07:06:58;5.72;;;1.80;;
18720;SDS011;9489;50.948;3.114;2024-01-15T07:09:23;5.05;;;1.60;;
18720;SDS011;9489;50.948;3.114;2024-01-15T07:11:49;5.55;;;1.60;;
18720;SDS011;9489;50.948;3.114;2024-01-15T07:14:14;4.57;;;2.33;;
18720;SDS011;9489;50.948;3.114;2024-01-15T07:16:40;5.45;;;1.52;;
18720;SDS011;9489;50.948;3.114;2024-01-15T07:19:07;7.43;;;1.95;;
18720;SDS011;9489;50.948;3.114;2024-01-15T07:21:32;5.22;;;1.48;;
18720;SDS011;9489;50.948;3.114;2024-01-15T07:23:58;4.22;;;1.33;;
18720;SDS011;9489;50.948;3.114;2024-01-15T07:26:24;4.30;;;1.10;;
18720;SDS011;9489;50.948;3.114;2024-01-15T07:28:50;5.78;;;1.73;;
18720;SDS011;9489;50.948;3.114;2024-01-15T07:31:16;6.85;;;1.70;;
18720;SDS011;9489;50.948;3.114;2024-01-15T07:33:42;5.97;;;1.38;;
18720;SDS011;9489;50.948;3.114;2024-01-15T07:36:08;5.82;;;2.03;;
18720;SDS011;9489;50.948;3.114;2024-01-15T07:38:34;5.88;;;1.65;;
18720;SDS011;9489;50.948;3.114;2024-01-15T07:40:59;3.58;;;1.85;;
18720;SDS011;9489;50.948;3.114;2024-01-15T07:43:25;3.78;;;1.73;;
18720;SDS011;9489;50.948;3.114;2024-01-15T07:45:53;8.40;;;1.90;;
18720;SDS011;9489;50.948;3.114;2024-01-15T07:48:18;4.82;;;1.63;;
18720;SDS011;9489;50.948;3.114;2024-01-15T07:50:45;5.15;;;1.95;;
18720;SDS011;9489;50.948;3.114;2024-01-15T07:53:12;7.32;;;1.65;;
18720;SDS011;9489;50.948;3.114;2024-01-15T07:55:37;3.67;;;2.10;;
18720;SDS011;9489;50.948;3.114;2024-01-15T07:58:03;6.90;;;1.60;;
18720;SDS011;9489;50.948;3.114;2024-01-15T08:00:29;4.40;;;1.40;;
18720;SDS011;9489;50.948;3.114;2024-01-15T08:02:55;5.82;;;2.10;;
18720;SDS011;9489;50.948;3.114;2024-01-15T08:05:20;5.18;;;2.03;;
18720;SDS011;9489;50.948;3.114;2024-01-15T08:07:46;5.82;;;1.90;;
18720;SDS011;9489;50.948;3.114;2024-01-15T08:10:12;4.20;;;1.60;;
18720;SDS011;9489;50.948;3.114;2024-01-15T08:12:39;4.75;;;1.77;;
18720;SDS011;9489;50.948;3.114;2024-01-15T08:15:04;5.68;;;1.42;;
18720;SDS011;9489;50.948;3.114;2024-01-15T08:17:30;5.57;;;1.58;;
18720;SDS011;9489;50.948;3.114;2024-01-15T08:19:57;4.90;;;1.63;;
18720;SDS011;9489;50.948;3.114;2024-01-15T08:22:23;3.97;;;1.65;;
18720;SDS011;9489;50.948;3.114;2024-01-15T08:24:48;3.90;;;1.25;;
18720;SDS011;9489;50.948;3.114;2024-01-15T08:27:14;5.03;;;1.20;;
18720;SDS011;9489;50.948;3.114;2024-01-15T08:29:40;5.68;;;1.77;;
18720;SDS011;9489;50.948;3.114;2024-01-15T08:32:05;6.57;;;1.50;;
18720;SDS011;9489;50.948;3.114;2024-01-15T08:34:31;6.80;;;1.80;;
18720;SDS011;9489;50.948;3.114;2024-01-15T08:36:56;3.75;;;1.80;;
18720;SDS011;9489;50.948;3.114;2024-01-15T08:39:22;6.13;;;1.90;;
18720;SDS011;9489;50.948;3.114;2024-01-15T08:41:48;6.07;;;1.33;;
18720;SDS011;9489;50.948;3.114;2024-01-15T08:44:13;5.03;;;1.20;;
18720;SDS011;9489;50.948;3.114;2024-01-15T08:46:39;3.38;;;1.35;;
18720;SDS011;9489;50.948;3.114;2024-01-15T08:49:04;6.30;;;1.35;;
18720;SDS011;9489;50.948;3.114;2024-01-15T08:51:31;6.07;;;1.55;;
18720;SDS011;9489;50.948;3.114;2024-01-15T08:53:56;3.92;;;1.30;;
18720;SDS011;9489;50.948;3.114;2024-01-15T08:56:23;3.25;;;1.08;;
18720;SDS011;9489;50.948;3.114;2024-01-15T08:58:48;3.72;;;1.40;;
18720;SDS011;9489;50.948;3.114;2024-01-15T09:01:15;6.50;;;1.40;;
18720;SDS011;9489;50.948;3.114;2024-01-15T09:03:40;4.43;;;1.35;;
18720;SDS011;9489;50.948;3.114;2024-01-15T09:06:07;7.47;;;1.25;;
18720;SDS011;9489;50.948;3.114;2024-01-15T09:08:34;5.18;;;1.50;;
18720;SDS011;9489;50.948;3.114;2024-01-15T09:11:00;5.20;;;1.67;;
18720;SDS011;9489;50.948;3.114;2024-01-15T09:13:28;4.25;;;1.38;;
18720;SDS011;9489;50.948;3.114;2024-01-15T09:15:53;4.93;;;1.92;;
18720;SDS011;9489;50.948;3.114;2024-01-15T09:18:19;3.25;;;1.60;;
18720;SDS011;9489;50.948;3.114;2024-01-15T09:20:44;6.63;;;1.23;;
18720;SDS011;9489;50.948;3.114;2024-01-15T09:23:10;2.80;;;1.42;;
18720;SDS011;9489;50.948;3.114;2024-01-15T09:25:36;6.78;;;1.42;;
18720;SDS011;9489;50.948;3.114;2024-01-15T09:28:01;5.45;;;1.23;;
18720;SDS011;9489;50.948;3.114;2024-01-15T09:30:27;3.28;;;1.00;;
18720;SDS011;9489;50.948;3.114;2024-01-15T09:32:53;4.15;;;1.00;;
18720;SDS011;9489;50.948;3.114;2024-01-15T09:35:19;2.95;;;1.05;;
18720;SDS011;9489;50.948;3.114;2024-01-15T09:37:44;4.07;;;1.63;;
18720;SDS011;9489;50.948;3.114;2024-01-15T09:40:12;7.05;;;1.70;;
18720;SDS011;9489;50.948;3.114;2024-01-15T09:42:40;3.75;;;1.55;;
18720;SDS011;9489;50.948;3.114;2024-01-15T09:45:06;5.00;;;1.67;;
18720;SDS011;9489;50.948;3.114;2024-01-15T09:47:34;4.00;;;1.60;;
18720;SDS011;9489;50.948;3.114;2024-01-15T09:50:00;5.50;;;1.77;;
18720;SDS011;9489;50.948;3.114;2024-01-15T09:52:28;5.70;;;1.80;;
18720;SDS011;9489;50.948;3.114;2024-01-15T09:54:55;2.90;;;1.40;;
18720;SDS011;9489;50.948;3.114;2024-01-15T09:57:24;2.45;;;1.30;;
18720;SDS011;9489;50.948;3.114;2024-01-15T09:59:50;2.40;;;1.20;;
18720;SDS011;9489;50.948;3.114;2024-01-15T10:02:18;3.38;;;1.55;;
18720;SDS011;9489;50.948;3.114;2024-01-15T10:04:44;4.13;;;1.30;;
18720;SDS011;9489;50.948;3.114;2024-01-15T10:07:11;1.95;;;1.00;;
18720;SDS011;9489;50.948;3.114;2024-01-15T10:09:41;3.90;;;1.48;;
18720;SDS011;9489;50.948;3.114;2024-01-15T10:12:07;2.80;;;1.10;;
18720;SDS011;9489;50.948;3.114;2024-01-15T10:14:34;3.70;;;1.10;;
18720;SDS011;9489;50.948;3.114;2024-01-15T10:16:59;3.83;;;1.02;;
18720;SDS011;9489;50.948;3.114;2024-01-15T10:19:25;3.30;;;1.20;;
18720;SDS011;9489;50.948;3.114;2024-01-15T10:21:51;3.70;;;1.02;;
18720;SDS011;9489;50.948;3.114;2024-01-15T10:24:16;7.00;;;1.45;;
18720;SDS011;9489;50.948;3.114;2024-01-15T10:26:42;3.70;;;1.23;;
18720;SDS011;9489;50.948;3.114;2024-01-15T10:29:09;4.88;;;1.02;;
18720;SDS011;9489;50.948;3.114;2024-01-15T10:31:35;5.47;;;1.75;;
18720;SDS011;9489;50.948;3.114;2024-01-15T10:34:12;5.22;;;1.00;;
18720;SDS011;9489;50.948;3.114;2024-01-15T10:36:41;4.63;;;1.33;;
18720;SDS011;9489;50.948;3.114;2024-01-15T10:39:06;2.35;;;1.13;;
18720;SDS011;9489;50.948;3.114;2024-01-15T10:41:33;4.80;;;1.38;;
18720;SDS011;9489;50.948;3.114;2024-01-15T10:43:59;3.42;;;1.02;;
18720;SDS011;9489;50.948;3.114;2024-01-15T10:46:25;5.43;;;1.20;;
18720;SDS011;9489;50.948;3.114;2024-01-15T10:48:51;3.65;;;1.00;;
18720;SDS011;9489;50.948;3.114;2024-01-15T10:51:17;3.60;;;1.20;;
18720;SDS011;9489;50.948;3.114;2024-01-15T10:53:43;5.70;;;0.98;;
18720;SDS011;9489;50.948;3.114;2024-01-15T10:56:10;4.68;;;1.50;;
18720;SDS011;9489;50.948;3.114;2024-01-15T10:58:38;7.18;;;0.98;;
18720;SDS011;9489;50.948;3.114;2024-01-15T11:01:05;5.13;;;1.35;;
18720;SDS011;9489;50.948;3.114;2024-01-15T11:03:31;4.05;;;1.23;;
18720;SDS011;9489;50.948;3.114;2024-01-15T11:05:58;8.27;;;1.60;;
18720;SDS011;9489;50.948;3.114;2024-01-15T11:08:24;3.95;;;1.08;;
18720;SDS011;9489;50.948;3.114;2024-01-15T11:10:51;7.18;;;1.75;;
18720;SDS011;9489;50.948;3.114;2024-01-15T11:13:20;5.97;;;1.38;;
18720;SDS011;9489;50.948;3.114;2024-01-15T11:18:36;5.30;;;1.77;;
18720;SDS011;9489;50.948;3.114;2024-01-15T11:23:51;5.30;;;1.45;;
18720;SDS011;9489;50.948;3.114;2024-01-15T11:34:04;5.85;;;1.27;;
18720;SDS011;9489;50.948;3.114;2024-01-15T11:37:15;8.15;;;1.50;;
18720;SDS011;9489;50.948;3.114;2024-01-15T11:41:59;8.00;;;1.55;;
18720;SDS011;9489;50.948;3.114;2024-01-15T11:44:26;5.88;;;1.38;;
18720;SDS011;9489;50.948;3.114;2024-01-15T11:47:13;6.90;;;2.33;;
18720;SDS011;9489;50.948;3.114;2024-01-15T11:52:22;4.57;;;1.80;;
18720;SDS011;9489;50.948;3.114;2024-01-15T11:57:53;5.68;;;1.67;;
18720;SDS011;9489;50.948;3.114;2024-01-15T12:00:20;4.32;;;1.10;;
18720;SDS011;9489;50.948;3.114;2024-01-15T12:02:47;6.00;;;1.42;;
18720;SDS011;9489;50.948;3.114;2024-01-15T12:05:14;5.25;;;1.50;;
18720;SDS011;9489;50.948;3.114;2024-01-15T12:07:42;6.38;;;1.38;;
18720;SDS011;9489;50.948;3.114;2024-01-15T12:10:09;3.13;;;1.20;;
18720;SDS011;9489;50.948;3.114;2024-01-15T12:15:09;4.95;;;1.63;;
18720;SDS011;9489;50.948;3.114;2024-01-15T12:17:35;4.85;;;1.13;;
18720;SDS011;9489;50.948;3.114;2024-01-15T12:20:02;5.85;;;1.25;;
18720;SDS011;9489;50.948;3.114;2024-01-15T12:22:29;5.07;;;1.77;;
18720;SDS011;9489;50.948;3.114;2024-01-15T12:24:55;4.53;;;1.20;;
18720;SDS011;9489;50.948;3.114;2024-01-15T12:27:21;6.50;;;1.20;;
18720;SDS011;9489;50.948;3.114;2024-01-15T12:29:47;4.68;;;1.40;;
18720;SDS011;9489;50.948;3.114;2024-01-15T12:32:12;6.53;;;1.67;;
18720;SDS011;9489;50.948;3.114;2024-01-15T12:34:38;5.00;;;2.10;;
18720;SDS011;9489;50.948;3.114;2024-01-15T12:37:04;11.45;;;1.83;;
18720;SDS011;9489;50.948;3.114;2024-01-15T12:39:33;3.53;;;0.90;;
18720;SDS011;9489;50.948;3.114;2024-01-15T12:42:00;5.95;;;1.60;;
18720;SDS011;9489;50.948;3.114;2024-01-15T12:44:26;5.10;;;1.23;;
18720;SDS011;9489;50.948;3.114;2024-01-15T12:46:53;8.95;;;1.60;;
18720;SDS011;9489;50.948;3.114;2024-01-15T12:49:19;6.18;;;1.50;;
18720;SDS011;9489;50.948;3.114;2024-01-15T12:51:51;4.97;;;1.65;;
18720;SDS011;9489;50.948;3.114;2024-01-15T12:54:18;9.15;;;1.40;;
18720;SDS011;9489;50.948;3.114;2024-01-15T12:56:44;7.00;;;1.70;;
18720;SDS011;9489;50.948;3.114;2024-01-15T12:59:09;6.95;;;2.13;;
18720;SDS011;9489;50.948;3.114;2024-01-15T13:01:35;5.15;;;2.53;;
18720;SDS011;9489;50.948;3.114;2024-01-15T13:04:01;4.63;;;1.63;;
18720;SDS011;9489;50.948;3.114;2024-01-15T13:06:27;8.15;;;1.75;;
18720;SDS011;9489;50.948;3.114;2024-01-15T13:08:52;6.75;;;1.85;;
18720;SDS011;9489;50.948;3.114;2024-01-15T13:11:18;6.45;;;1.80;;
18720;SDS011;9489;50.948;3.114;2024-01-15T13:13:44;10.90;;;1.85;;
18720;SDS011;9489;50.948;3.114;2024-01-15T13:16:09;7.40;;;2.00;;
18720;SDS011;9489;50.948;3.114;2024-01-15T13:18:35;6.43;;;1.80;;
18720;SDS011;9489;50.948;3.114;2024-01-15T13:21:01;4.90;;;1.40;;
18720;SDS011;9489;50.948;3.114;2024-01-15T13:23:27;4.70;;;1.40;;
18720;SDS011;9489;50.948;3.114;2024-01-15T13:25:53;7.55;;;1.73;;
18720;SDS011;9489;50.948;3.114;2024-01-15T13:28:19;6.85;;;1.65;;
18720;SDS011;9489;50.948;3.114;2024-01-15T13:30:46;8.25;;;2.10;;
18720;SDS011;9489;50.948;3.114;2024-01-15T13:33:12;5.72;;;1.52;;
18720;SDS011;9489;50.948;3.114;2024-01-15T13:35:38;5.60;;;1.35;;
18720;SDS011;9489;50.948;3.114;2024-01-15T13:38:04;5.30;;;1.80;;
18720;SDS011;9489;50.948;3.114;2024-01-15T13:40:29;6.35;;;1.80;;
18720;SDS011;9489;50.948;3.114;2024-01-15T13:42:55;4.63;;;1.50;;
18720;SDS011;9489;50.948;3.114;2024-01-15T13:45:21;4.18;;;1.05;;
18720;SDS011;9489;50.948;3.114;2024-01-15T13:47:49;5.88;;;1.50;;
18720;SDS011;9489;50.948;3.114;2024-01-15T13:50:14;4.18;;;1.40;;
18720;SDS011;9489;50.948;3.114;2024-01-15T13:52:40;4.28;;;1.40;;
18720;SDS011;9489;50.948;3.114;2024-01-15T13:55:06;4.70;;;2.10;;
18720;SDS011;9489;50.948;3.114;2024-01-15T13:57:34;5.90;;;2.22;;
18720;SDS011;9489;50.948;3.114;2024-01-15T13:59:59;10.30;;;2.30;;
18720;SDS011;9489;50.948;3.114;2024-01-15T14:02:25;5.60;;;2.13;;
18720;SDS011;9489;50.948;3.114;2024-01-15T14:04:50;7.32;;;2.05;;
18720;SDS011;9489;50.948;3.114;2024-01-15T14:07:16;7.72;;;2.83;;
18720;SDS011;9489;50.948;3.114;2024-01-15T14:09:42;4.80;;;1.65;;
18720;SDS011;9489;50.948;3.114;2024-01-15T14:12:08;5.50;;;2.30;;
18720;SDS011;9489;50.948;3.114;2024-01-15T14:14:33;8.13;;;1.83;;
18720;SDS011;9489;50.948;3.114;2024-01-15T14:16:59;5.82;;;1.83;;
18720;SDS011;9489;50.948;3.114;2024-01-15T14:19:25;5.45;;;1.45;;
18720;SDS011;9489;50.948;3.114;2024-01-15T14:21:50;9.98;;;2.17;;
18720;SDS011;9489;50.948;3.114;2024-01-15T14:24:16;6.78;;;1.65;;
18720;SDS011;9489;50.948;3.114;2024-01-15T14:26:42;7.07;;;1.80;;
18720;SDS011;9489;50.948;3.114;2024-01-15T14:29:08;7.93;;;2.00;;
18720;SDS011;9489;50.948;3.114;2024-01-15T14:31:34;9.60;;;2.05;;
18720;SDS011;9489;50.948;3.114;2024-01-15T14:33:59;5.88;;;1.65;;
18720;SDS011;9489;50.948;3.114;2024-01-15T14:36:27;7.28;;;2.40;;
18720;SDS011;9489;50.948;3.114;2024-01-15T14:38:53;10.70;;;1.98;;
18720;SDS011;9489;50.948;3.114;2024-01-15T14:41:19;6.80;;;2.70;;
18720;SDS011;9489;50.948;3.114;2024-01-15T14:43:44;6.65;;;1.77;;
18720;SDS011;9489;50.948;3.114;2024-01-15T14:46:10;6.22;;;1.73;;
18720;SDS011;9489;50.948;3.114;2024-01-15T14:48:36;4.80;;;1.65;;
18720;SDS011;9489;50.948;3.114;2024-01-15T14:51:02;6.10;;;1.90;;
18720;SDS011;9489;50.948;3.114;2024-01-15T14:53:28;8.75;;;2.13;;
18720;SDS011;9489;50.948;3.114;2024-01-15T14:55:54;5.85;;;1.70;;
18720;SDS011;9489;50.948;3.114;2024-01-15T14:58:19;5.90;;;1.73;;
18720;SDS011;9489;50.948;3.114;2024-01-15T15:00:46;7.85;;;1.73;;
18720;SDS011;9489;50.948;3.114;2024-01-15T15:03:12;4.32;;;1.70;;
18720;SDS011;9489;50.948;3.114;2024-01-15T15:05:40;5.82;;;1.83;;
18720;SDS011;9489;50.948;3.114;2024-01-15T15:08:06;6.40;;;1.60;;
18720;SDS011;9489;50.948;3.114;2024-01-15T15:10:37;3.65;;;1.20;;
18720;SDS011;9489;50.948;3.114;2024-01-15T15:13:03;5.93;;;1.60;;
18720;SDS011;9489;50.948;3.114;2024-01-15T15:15:29;6.90;;;1.40;;
18720;SDS011;9489;50.948;3.114;2024-01-15T15:17:54;6.13;;;1.50;;
18720;SDS011;9489;50.948;3.114;2024-01-15T15:20:20;4.28;;;0.80;;